createdAt,value
2019-06-10T00:02:07.260Z,18.10
2019-06-10T00:04:37.598Z,18.00
2019-06-10T00:07:07.547Z,18.00
2019-06-10T00:09:40.598Z,18.00
2019-06-10T00:12:12.577Z,17.90
2019-06-10T00:14:41.983Z,17.90
2019-06-10T00:17:11.972Z,17.80
2019-06-10T00:19:41.916Z,17.80
2019-06-10T00:22:11.968Z,17.80
2019-06-10T00:24:42.849Z,17.80
2019-06-10T00:27:13.744Z,17.70
2019-06-10T00:29:43.595Z,17.60
2019-06-10T00:32:13.537Z,17.60
2019-06-10T00:34:43.307Z,17.60
2019-06-10T00:37:14.770Z,17.60
2019-06-10T00:39:44.665Z,17.50
2019-06-10T00:42:15.392Z,17.50
2019-06-10T00:44:46.407Z,17.50
2019-06-10T00:47:16.169Z,17.50
2019-06-10T00:49:46.036Z,17.50
2019-06-10T00:52:15.983Z,17.50
2019-06-10T00:54:45.886Z,17.50
2019-06-10T00:57:15.596Z,17.50
2019-06-10T00:59:45.370Z,17.50
2019-06-10T01:02:15.188Z,17.50
2019-06-10T01:04:46.174Z,17.50
2019-06-10T01:07:15.985Z,17.50
2019-06-10T01:09:45.859Z,17.50
2019-06-10T01:12:15.668Z,17.40
2019-06-10T01:14:45.491Z,17.40
2019-06-10T01:17:15.620Z,17.40
2019-06-10T01:19:45.669Z,17.40
2019-06-10T01:22:17.197Z,17.40
2019-06-10T01:24:47.108Z,17.40
2019-06-10T01:27:18.045Z,17.30
2019-06-10T01:29:48.012Z,17.40
2019-06-10T01:32:17.853Z,17.40
2019-06-10T01:34:47.753Z,17.40
2019-06-10T01:37:17.703Z,17.30
2019-06-10T01:39:47.660Z,17.30
2019-06-10T01:42:17.569Z,17.30
2019-06-10T01:44:47.367Z,17.30
2019-06-10T01:47:17.679Z,17.20
2019-06-10T01:49:47.658Z,17.20
2019-06-10T01:52:18.378Z,17.20
2019-06-10T01:54:48.491Z,17.10
2019-06-10T01:57:18.621Z,17.20
2019-06-10T01:59:50.748Z,17.20
2019-06-10T02:02:23.919Z,17.20
2019-06-10T02:04:53.396Z,17.20
2019-06-10T02:07:23.928Z,17.20
2019-06-10T02:09:53.720Z,17.20
2019-06-10T02:12:24.002Z,17.20
2019-06-10T02:14:54.505Z,17.20
2019-06-10T02:17:24.347Z,17.20
2019-06-10T02:19:55.313Z,17.20
2019-06-10T02:22:26.203Z,17.20
2019-06-10T02:24:56.103Z,17.20
2019-06-10T02:27:25.964Z,17.30
2019-06-10T02:29:55.773Z,17.20
2019-06-10T02:32:32.812Z,17.20
2019-06-10T02:35:14.477Z,17.20
2019-06-10T02:37:32.107Z,17.20
2019-06-10T02:40:04.084Z,17.20
2019-06-10T02:42:35.825Z,17.20
2019-06-10T02:45:08.749Z,17.20
2019-06-10T02:47:38.667Z,17.20
2019-06-10T02:50:10.052Z,17.20
2019-06-10T02:52:44.093Z,17.20
2019-06-10T02:55:14.009Z,17.20
2019-06-10T02:57:45.423Z,17.20
2019-06-10T03:00:24.725Z,17.30
2019-06-10T03:02:46.822Z,17.20
2019-06-10T03:05:18.827Z,17.30
2019-06-10T03:07:47.739Z,17.30
2019-06-10T03:10:20.707Z,17.30
2019-06-10T03:12:49.960Z,17.30
2019-06-10T03:15:20.026Z,17.30
2019-06-10T03:17:52.017Z,17.30
2019-06-10T03:20:24.251Z,17.40
2019-06-10T03:22:52.780Z,17.50
2019-06-10T03:25:24.479Z,17.50
2019-06-10T03:27:54.340Z,17.60
2019-06-10T03:30:37.315Z,17.70
2019-06-10T03:32:55.711Z,17.70
2019-06-10T03:35:26.886Z,17.80
2019-06-10T03:37:57.243Z,17.80
2019-06-10T03:40:27.763Z,17.80
2019-06-10T03:42:57.761Z,17.80
2019-06-10T03:45:28.498Z,17.80
2019-06-10T03:47:58.473Z,17.80
2019-06-10T03:50:28.709Z,17.90
2019-06-10T03:53:01.052Z,18.00
2019-06-10T03:55:30.014Z,18.00
2019-06-10T03:58:02.064Z,18.00
2019-06-10T04:00:32.785Z,18.00
2019-06-10T04:03:02.916Z,18.00
2019-06-10T04:05:33.214Z,18.10
2019-06-10T04:08:03.163Z,18.10
2019-06-10T04:10:33.024Z,18.10
2019-06-10T04:13:02.823Z,18.20
2019-06-10T04:15:32.792Z,18.20
2019-06-10T04:18:03.962Z,18.20
2019-06-10T04:20:33.986Z,18.20
2019-06-10T04:23:03.900Z,18.20
2019-06-10T04:25:33.863Z,18.20
2019-06-10T04:28:03.809Z,18.30
2019-06-10T04:30:33.664Z,18.30
2019-06-10T04:33:03.500Z,18.30
2019-06-10T04:35:33.654Z,18.40
2019-06-10T04:38:03.775Z,18.40
2019-06-10T04:40:33.624Z,18.40
2019-06-10T04:43:03.569Z,18.40
2019-06-10T04:45:33.303Z,18.40
2019-06-10T04:48:03.228Z,18.40
2019-06-10T04:50:41.498Z,18.40
2019-06-10T04:53:18.725Z,18.40
2019-06-10T04:55:48.359Z,18.40
2019-06-10T04:58:19.372Z,18.40
2019-06-10T05:00:52.187Z,18.50
2019-06-10T05:03:23.524Z,18.50
2019-06-10T05:05:52.724Z,18.50
2019-06-10T05:08:23.944Z,18.60
2019-06-10T05:10:53.913Z,18.60
2019-06-10T05:13:24.181Z,18.60
2019-06-10T05:15:54.963Z,18.60
2019-06-10T05:18:25.915Z,18.70
2019-06-10T05:20:58.716Z,18.70
2019-06-10T05:23:27.930Z,18.70
2019-06-10T05:25:58.915Z,18.80
2019-06-10T05:28:28.777Z,18.90
2019-06-10T05:30:58.612Z,19.00
2019-06-10T05:33:28.651Z,19.00
2019-06-10T05:35:58.423Z,19.00
2019-06-10T05:38:29.124Z,19.00
2019-06-10T05:41:02.633Z,19.00
2019-06-10T05:43:34.407Z,19.10
2019-06-10T05:46:03.645Z,19.10
2019-06-10T05:48:35.077Z,19.20
2019-06-10T05:51:06.764Z,19.20
2019-06-10T05:53:36.527Z,19.30
2019-06-10T05:56:06.445Z,19.40
2019-06-10T05:58:38.125Z,19.40
2019-06-10T06:01:07.991Z,19.40
2019-06-10T06:03:37.832Z,19.40
2019-06-10T06:06:07.701Z,19.50
2019-06-10T06:08:37.624Z,19.50
2019-06-10T06:11:07.433Z,19.50
2019-06-10T06:13:38.023Z,19.60
2019-06-10T06:16:08.041Z,19.60
2019-06-10T06:18:38.372Z,19.60
2019-06-10T06:21:22.399Z,19.70
2019-06-10T06:23:43.455Z,19.80
2019-06-10T06:26:16.264Z,19.80
2019-06-10T06:28:44.227Z,19.80
2019-06-10T06:31:14.078Z,19.80
2019-06-10T06:33:43.829Z,19.90
2019-06-10T06:36:13.779Z,20.00
2019-06-10T06:38:43.949Z,20.00
2019-06-10T06:41:13.952Z,20.00
2019-06-10T06:43:45.398Z,20.10
2019-06-10T06:46:15.389Z,20.20
2019-06-10T06:48:45.250Z,20.30
2019-06-10T06:51:15.161Z,20.30
2019-06-10T06:53:51.641Z,20.40
2019-06-10T06:56:16.659Z,20.40
2019-06-10T06:58:46.261Z,20.40
2019-06-10T07:01:16.201Z,20.50
2019-06-10T07:03:46.118Z,20.50
2019-06-10T07:06:16.700Z,20.50
2019-06-10T07:09:00.337Z,20.50
2019-06-10T07:11:19.113Z,20.60
2019-06-10T07:13:49.050Z,20.60
2019-06-10T07:16:18.925Z,20.70
2019-06-10T07:18:50.128Z,20.80
2019-06-10T07:21:19.788Z,20.90
2019-06-10T07:23:49.635Z,21.00
2019-06-10T07:26:19.444Z,21.10
2019-06-10T07:28:49.169Z,21.20
2019-06-10T07:31:24.055Z,21.30
2019-06-10T07:33:52.641Z,21.40
2019-06-10T07:36:23.620Z,21.60
2019-06-10T07:38:54.222Z,21.60
2019-06-10T07:41:24.054Z,21.70
2019-06-10T07:43:54.161Z,21.90
2019-06-10T07:46:23.992Z,22.10
2019-06-10T07:48:56.587Z,22.20
2019-06-10T07:51:25.325Z,22.40
2019-06-10T07:53:55.248Z,22.50
2019-06-10T07:56:28.952Z,22.70
2019-06-10T07:58:57.226Z,22.90
2019-06-10T08:01:27.135Z,23.00
2019-06-10T08:03:56.945Z,23.20
2019-06-10T08:06:26.761Z,23.40
2019-06-10T08:08:56.693Z,23.50
2019-06-10T08:11:26.624Z,23.70
2019-06-10T08:13:57.535Z,23.80
2019-06-10T08:16:27.327Z,24.10
2019-06-10T08:19:22.280Z,24.30
2019-06-10T08:21:28.748Z,24.60
2019-06-10T08:23:58.713Z,24.80
2019-06-10T08:26:28.589Z,24.90
2019-06-10T08:28:58.495Z,25.20
2019-06-10T08:31:28.273Z,25.40
2019-06-10T08:33:58.192Z,25.50
2019-06-10T08:36:28.016Z,25.60
2019-06-10T08:38:57.951Z,25.80
2019-06-10T08:41:27.858Z,26.10
2019-06-10T08:43:57.833Z,26.20
2019-06-10T08:46:27.635Z,26.40
2019-06-10T08:48:57.483Z,26.60
2019-06-10T08:51:27.160Z,26.60
2019-06-10T08:53:57.064Z,26.50
2019-06-10T08:56:26.939Z,26.50
2019-06-10T08:58:56.715Z,26.60
2019-06-10T09:01:26.591Z,26.70
2019-06-10T09:03:56.422Z,26.60
2019-06-10T09:06:26.334Z,26.50
2019-06-10T09:08:56.054Z,26.50
2019-06-10T09:11:25.872Z,26.50
2019-06-10T09:13:55.716Z,26.50
2019-06-10T09:16:25.589Z,26.50
2019-06-10T09:18:55.629Z,26.50
2019-06-10T09:21:25.573Z,26.40
2019-06-10T09:23:59.620Z,26.60
2019-06-10T09:26:26.855Z,26.50
2019-06-10T09:28:56.815Z,26.50
2019-06-10T09:31:27.731Z,26.40
2019-06-10T09:33:57.621Z,26.20
2019-06-10T09:36:27.458Z,26.00
2019-06-10T09:38:57.297Z,25.80
2019-06-10T09:41:39.389Z,25.60
2019-06-10T09:43:58.601Z,25.40
2019-06-10T09:46:33.102Z,25.30
2019-06-10T09:49:05.260Z,25.20
2019-06-10T09:51:34.453Z,25.10
2019-06-10T09:54:06.645Z,25.10
2019-06-10T09:56:36.140Z,25.00
2019-06-10T09:59:06.107Z,25.00
2019-06-10T10:01:35.927Z,25.10
2019-06-10T10:04:05.995Z,25.00
2019-06-10T10:06:36.472Z,25.00
2019-06-10T10:09:07.488Z,24.90
2019-06-10T10:11:37.333Z,24.90
2019-06-10T10:14:10.126Z,24.90
2019-06-10T10:16:39.034Z,24.90
2019-06-10T10:19:08.892Z,25.00
2019-06-10T10:21:41.309Z,25.10
2019-06-10T10:24:14.161Z,25.20
2019-06-10T10:26:44.783Z,25.20
2019-06-10T10:29:13.246Z,25.20
2019-06-10T10:31:47.024Z,25.20
2019-06-10T10:34:14.387Z,25.30
2019-06-10T10:36:46.409Z,25.30
2019-06-10T10:39:15.683Z,25.30
2019-06-10T10:41:47.099Z,25.20
2019-06-10T10:44:16.924Z,25.20
2019-06-10T10:46:47.526Z,25.20
2019-06-10T10:49:17.230Z,25.10
2019-06-10T10:51:47.070Z,25.00
2019-06-10T10:54:29.833Z,25.10
2019-06-10T10:56:49.631Z,25.10
2019-06-10T10:59:21.728Z,25.10
2019-06-10T11:01:51.606Z,25.10
2019-06-10T11:04:22.594Z,25.10
2019-06-10T11:06:56.459Z,25.00
2019-06-10T11:09:26.500Z,25.00
2019-06-10T11:11:59.015Z,24.90
2019-06-10T11:14:29.358Z,24.80
2019-06-10T11:16:59.185Z,24.80
2019-06-10T11:19:29.160Z,24.80
2019-06-10T11:21:59.019Z,24.70
2019-06-10T11:24:35.881Z,24.70
2019-06-10T11:27:00.294Z,24.60
2019-06-10T11:29:32.911Z,24.70
2019-06-10T11:32:03.219Z,24.70
2019-06-10T11:34:33.442Z,24.80
2019-06-10T11:37:04.119Z,24.80
2019-06-10T11:39:37.945Z,24.80
2019-06-10T11:42:05.740Z,24.70
2019-06-10T11:44:35.609Z,24.80
2019-06-10T11:47:05.641Z,24.80
2019-06-10T11:49:35.508Z,24.90
2019-06-10T11:52:05.213Z,24.80
2019-06-10T11:54:50.625Z,24.80
2019-06-10T11:57:06.600Z,24.80
2019-06-10T11:59:36.221Z,24.80
2019-06-10T12:02:06.387Z,24.70
2019-06-10T12:04:36.194Z,24.70
2019-06-10T12:07:06.919Z,24.80
2019-06-10T12:09:36.736Z,24.80
2019-06-10T12:12:06.754Z,24.80
2019-06-10T12:14:36.458Z,24.90
2019-06-10T12:17:21.867Z,24.90
2019-06-10T12:19:38.524Z,25.00
2019-06-10T12:22:08.481Z,24.90
2019-06-10T12:24:38.332Z,25.00
2019-06-10T12:27:08.190Z,25.00
2019-06-10T12:29:37.967Z,25.00
2019-06-10T12:32:07.975Z,25.00
2019-06-10T12:34:37.725Z,25.00
2019-06-10T12:37:12.026Z,25.00
2019-06-10T12:39:39.180Z,25.00
2019-06-10T12:42:13.535Z,25.00
2019-06-10T12:44:42.727Z,25.00
2019-06-10T12:47:11.922Z,25.00
2019-06-10T12:49:42.764Z,25.10
2019-06-10T12:52:12.761Z,25.10
2019-06-10T12:54:42.611Z,25.20
2019-06-10T12:57:12.536Z,25.20
2019-06-10T12:59:43.433Z,25.20
2019-06-10T13:02:22.537Z,25.20
2019-06-10T13:04:45.140Z,25.20
2019-06-10T13:07:16.985Z,25.30
2019-06-10T13:09:47.402Z,25.20
2019-06-10T13:12:17.188Z,25.20
2019-06-10T13:14:46.927Z,25.20
2019-06-10T13:17:16.824Z,25.20
2019-06-10T13:19:46.716Z,25.10
2019-06-10T13:22:16.627Z,25.10
2019-06-10T13:24:46.419Z,25.10
2019-06-10T13:27:16.268Z,25.00
2019-06-10T13:29:46.076Z,25.00
2019-06-10T13:32:15.684Z,25.00
2019-06-10T13:34:45.422Z,24.90
2019-06-10T13:37:16.242Z,24.90
2019-06-10T13:39:46.544Z,24.80
2019-06-10T13:42:16.140Z,24.80
2019-06-10T13:44:46.065Z,24.80
2019-06-10T13:47:17.492Z,24.80
2019-06-10T13:49:47.450Z,24.90
2019-06-10T13:52:17.417Z,25.00
2019-06-10T13:54:47.155Z,24.90
2019-06-10T13:57:16.993Z,25.00
2019-06-10T13:59:46.899Z,24.90
2019-06-10T14:02:16.775Z,25.00
2019-06-10T14:04:46.642Z,25.00
2019-06-10T14:07:17.366Z,25.20
2019-06-10T14:09:47.595Z,25.20
2019-06-10T14:12:17.802Z,25.20
2019-06-10T14:14:47.800Z,25.10
2019-06-10T14:17:19.405Z,25.00
2019-06-10T14:19:49.115Z,25.00
2019-06-10T14:22:19.076Z,24.90
2019-06-10T14:24:48.982Z,24.80
2019-06-10T14:27:21.458Z,24.70
2019-06-10T14:29:52.740Z,24.70
2019-06-10T14:32:22.379Z,24.60
2019-06-10T14:34:52.787Z,24.60
2019-06-10T14:37:33.117Z,24.60
2019-06-10T14:39:54.105Z,24.50
2019-06-10T14:42:23.976Z,24.50
2019-06-10T14:44:53.582Z,24.40
2019-06-10T14:47:23.475Z,24.40
2019-06-10T14:49:53.316Z,24.30
2019-06-10T14:52:23.152Z,24.30
2019-06-10T14:54:53.377Z,24.30
2019-06-10T14:57:23.436Z,24.30
2019-06-10T14:59:53.370Z,24.20
2019-06-10T15:02:23.192Z,24.30
2019-06-10T15:04:53.282Z,24.30
2019-06-10T15:07:23.910Z,24.30
2019-06-10T15:09:53.989Z,24.30
2019-06-10T15:12:23.906Z,24.20
2019-06-10T15:14:53.736Z,24.20
2019-06-10T15:17:23.529Z,24.30
2019-06-10T15:19:53.368Z,24.30
2019-06-10T15:22:23.742Z,24.20
2019-06-10T15:24:53.723Z,24.20
2019-06-10T15:27:30.420Z,24.20
2019-06-10T15:29:55.871Z,24.20
2019-06-10T15:32:33.641Z,24.20
2019-06-10T15:34:58.191Z,24.10
2019-06-10T15:37:28.971Z,24.10
2019-06-10T15:39:58.788Z,24.10
2019-06-10T15:42:28.758Z,24.10
2019-06-10T15:44:58.845Z,24.10
2019-06-10T15:47:28.732Z,24.10
2019-06-10T15:49:58.388Z,24.10
2019-06-10T15:52:28.102Z,24.10
2019-06-10T15:54:58.000Z,24.10
2019-06-10T15:57:39.225Z,24.10
2019-06-10T16:00:04.209Z,24.00
2019-06-10T16:02:33.904Z,24.00
2019-06-10T16:05:13.920Z,24.00
2019-06-10T16:07:42.615Z,24.00
2019-06-10T16:10:17.272Z,24.00
2019-06-10T16:12:44.476Z,24.00
2019-06-10T16:15:16.248Z,23.90
2019-06-10T16:17:45.880Z,23.90
2019-06-10T16:20:17.670Z,23.90
2019-06-10T16:22:46.906Z,23.80
2019-06-10T16:25:17.767Z,23.80
2019-06-10T16:27:51.085Z,23.80
2019-06-10T16:30:20.823Z,23.80
2019-06-10T16:32:52.827Z,23.70
2019-06-10T16:35:23.494Z,23.70
2019-06-10T16:37:56.373Z,23.70
2019-06-10T16:40:26.729Z,23.70
2019-06-10T16:42:55.782Z,23.60
2019-06-10T16:45:30.268Z,23.60
2019-06-10T16:47:57.160Z,23.60
2019-06-10T16:50:27.455Z,23.60
2019-06-10T16:52:57.476Z,23.50
2019-06-10T16:55:27.354Z,23.50
2019-06-10T16:57:59.694Z,23.50
2019-06-10T17:00:28.687Z,23.50
2019-06-10T17:02:58.535Z,23.40
2019-06-10T17:05:30.424Z,23.40
2019-06-10T17:07:59.789Z,23.40
2019-06-10T17:10:32.012Z,23.30
2019-06-10T17:13:03.295Z,23.30
2019-06-10T17:15:33.356Z,23.30
2019-06-10T17:18:03.571Z,23.30
2019-06-10T17:20:34.267Z,23.30
2019-06-10T17:23:06.078Z,23.30
2019-06-10T17:25:35.930Z,23.30
2019-06-10T17:28:17.745Z,23.30
2019-06-10T17:30:37.388Z,23.20
2019-06-10T17:33:06.971Z,23.20
2019-06-10T17:35:36.931Z,23.30
2019-06-10T17:38:06.655Z,23.20
2019-06-10T17:40:36.472Z,23.20
2019-06-10T17:43:06.388Z,23.10
2019-06-10T17:45:36.330Z,23.00
2019-06-10T17:48:07.443Z,22.90
2019-06-10T17:50:37.221Z,22.90
2019-06-10T17:53:07.117Z,22.90
2019-06-10T17:55:36.956Z,22.80
2019-06-10T17:58:06.841Z,22.80
2019-06-10T18:00:36.720Z,22.80
2019-06-10T18:03:06.630Z,22.70
2019-06-10T18:05:36.536Z,22.60
2019-06-10T18:08:06.402Z,22.60
2019-06-10T18:10:36.219Z,22.60
2019-06-10T18:13:14.009Z,22.60
2019-06-10T18:15:38.063Z,22.50
2019-06-10T18:18:09.014Z,22.50
2019-06-10T18:20:38.837Z,22.50
2019-06-10T18:23:08.952Z,22.50
2019-06-10T18:25:38.899Z,22.50
2019-06-10T18:28:08.813Z,22.50
2019-06-10T18:30:38.460Z,22.40
2019-06-10T18:33:08.349Z,22.40
2019-06-10T18:35:38.247Z,22.40
2019-06-10T18:38:08.165Z,22.40
2019-06-10T18:40:38.035Z,22.40
2019-06-10T18:43:07.978Z,22.30
2019-06-10T18:45:38.634Z,22.30
2019-06-10T18:48:09.155Z,22.30
2019-06-10T18:50:39.646Z,22.30
2019-06-10T18:53:12.818Z,22.30
2019-06-10T18:55:43.604Z,22.30
2019-06-10T18:58:13.544Z,22.30
2019-06-10T19:00:56.673Z,22.30
2019-06-10T19:03:16.864Z,22.20
2019-06-10T19:05:46.456Z,22.20
2019-06-10T19:08:16.196Z,22.20
2019-06-10T19:10:46.105Z,22.20
2019-06-10T19:13:15.851Z,22.20
2019-06-10T19:15:45.791Z,22.20
2019-06-10T19:18:15.679Z,22.20
2019-06-10T19:20:45.499Z,22.20
2019-06-10T19:23:16.474Z,22.20
2019-06-10T19:25:46.662Z,22.20
2019-06-10T19:28:16.447Z,22.20
2019-06-10T19:30:47.211Z,22.20
2019-06-10T19:33:17.195Z,22.20
2019-06-10T19:35:47.110Z,22.20
2019-06-10T19:38:16.995Z,22.10
2019-06-10T19:40:46.831Z,22.10
2019-06-10T19:43:16.567Z,22.10
2019-06-10T19:45:46.903Z,22.10
2019-06-10T19:48:16.944Z,22.00
2019-06-10T19:50:50.098Z,22.00
2019-06-10T19:53:18.752Z,22.00
2019-06-10T19:55:48.637Z,22.00
2019-06-10T19:58:18.444Z,22.00
2019-06-10T20:00:51.138Z,22.00
2019-06-10T20:03:19.567Z,22.00
2019-06-10T20:05:52.694Z,22.00
2019-06-10T20:08:22.761Z,21.90
2019-06-10T20:10:53.285Z,21.90
2019-06-10T20:13:23.305Z,21.90
2019-06-10T20:15:53.242Z,21.90
2019-06-10T20:18:23.121Z,21.90
2019-06-10T20:20:54.099Z,21.90
2019-06-10T20:23:23.847Z,21.90
2019-06-10T20:25:53.767Z,21.90
2019-06-10T20:28:23.576Z,21.90
2019-06-10T20:30:53.509Z,21.80
2019-06-10T20:33:24.933Z,21.80
2019-06-10T20:35:54.673Z,21.80
2019-06-10T20:38:24.412Z,21.80
2019-06-10T20:40:54.303Z,21.80
2019-06-10T20:43:24.232Z,21.80
2019-06-10T20:45:54.041Z,21.80
2019-06-10T20:48:24.632Z,21.80
2019-06-10T20:50:54.466Z,21.80
2019-06-10T20:53:24.307Z,21.80
2019-06-10T20:55:57.436Z,21.80
2019-06-10T20:58:25.804Z,21.70
2019-06-10T21:00:57.091Z,21.70
2019-06-10T21:03:27.440Z,21.70
2019-06-10T21:05:59.302Z,21.70
2019-06-10T21:08:29.590Z,21.70
2019-06-10T21:10:59.228Z,21.70
2019-06-10T21:13:29.049Z,21.70
2019-06-10T21:15:59.370Z,21.70
2019-06-10T21:18:29.405Z,21.60
2019-06-10T21:20:59.324Z,21.60
2019-06-10T21:23:29.301Z,21.60
2019-06-10T21:25:59.145Z,21.60
2019-06-10T21:28:28.872Z,21.60
2019-06-10T21:30:59.100Z,21.60
2019-06-10T21:33:29.149Z,21.60
2019-06-10T21:35:58.960Z,21.50
2019-06-10T21:38:28.674Z,21.50
2019-06-10T21:40:58.560Z,21.50
2019-06-10T21:43:28.395Z,21.50
2019-06-10T21:45:58.113Z,21.50
2019-06-10T21:48:28.016Z,21.50
2019-06-10T21:50:57.995Z,21.60
2019-06-10T21:53:27.588Z,21.60
2019-06-10T21:55:57.479Z,21.60
2019-06-10T21:58:27.342Z,21.60
2019-06-10T22:01:11.607Z,21.60
2019-06-10T22:03:29.522Z,21.50
2019-06-10T22:05:59.434Z,21.50
2019-06-10T22:08:29.169Z,21.50
2019-06-10T22:10:59.037Z,21.50
2019-06-10T22:13:28.873Z,21.50
2019-06-10T22:15:58.783Z,21.50
2019-06-10T22:18:28.729Z,21.50
2019-06-10T22:20:58.599Z,21.50
2019-06-10T22:23:28.573Z,21.50
2019-06-10T22:25:58.347Z,21.50
2019-06-10T22:28:28.592Z,21.50
2019-06-10T22:31:15.196Z,21.50
2019-06-10T22:33:29.927Z,21.40
2019-06-10T22:36:02.176Z,21.40
2019-06-10T22:38:32.840Z,21.40
2019-06-10T22:41:03.415Z,21.40
2019-06-10T22:43:33.455Z,21.40
2019-06-10T22:46:03.993Z,21.40
2019-06-10T22:48:34.084Z,21.40
2019-06-10T22:51:03.951Z,21.30
2019-06-10T22:53:33.771Z,21.30
2019-06-10T22:56:03.675Z,21.30
2019-06-10T22:58:33.815Z,21.30
2019-06-10T23:01:04.362Z,21.30
2019-06-10T23:03:34.322Z,21.30
2019-06-10T23:06:04.024Z,21.30
2019-06-10T23:08:33.736Z,21.30
2019-06-10T23:11:03.644Z,21.30
2019-06-10T23:13:33.436Z,21.30
2019-06-10T23:16:03.297Z,21.30
2019-06-10T23:18:33.095Z,21.30
2019-06-10T23:21:04.634Z,21.30
2019-06-10T23:23:34.649Z,21.30
2019-06-10T23:26:04.540Z,21.20
2019-06-10T23:28:34.307Z,21.30
2019-06-10T23:31:05.273Z,21.20
2019-06-10T23:33:35.477Z,21.20
2019-06-10T23:36:05.385Z,21.20
2019-06-10T23:38:35.334Z,21.20
2019-06-10T23:41:05.167Z,21.20
2019-06-10T23:43:35.033Z,21.20
2019-06-10T23:46:04.867Z,21.20
2019-06-10T23:48:34.756Z,21.20
2019-06-10T23:51:05.151Z,21.20
2019-06-10T23:53:35.035Z,21.10
2019-06-10T23:56:05.136Z,21.10
2019-06-10T23:58:35.205Z,21.10
